createdAt,value
2022-10-03T00:01:53.691Z,1.10
2022-10-03T00:04:40.813Z,1.40
2022-10-03T00:07:32.653Z,0.85
2022-10-03T00:10:07.521Z,1.23
2022-10-03T00:12:52.599Z,1.35
2022-10-03T00:15:23.542Z,1.38
2022-10-03T00:18:13.686Z,1.63
2022-10-03T00:21:17.595Z,1.33
2022-10-03T00:24:14.038Z,1.10
2022-10-03T00:27:13.040Z,1.20
2022-10-03T00:30:02.742Z,1.50
2022-10-03T00:32:55.903Z,3.33
2022-10-03T00:35:45.871Z,1.48
2022-10-03T00:38:36.017Z,1.20
2022-10-03T00:41:13.811Z,0.82
2022-10-03T00:43:49.108Z,0.85
2022-10-03T00:46:58.426Z,1.17
2022-10-03T00:49:36.976Z,2.28
2022-10-03T00:52:43.249Z,1.40
2022-10-03T00:55:34.665Z,1.40
2022-10-03T00:58:18.183Z,1.10
2022-10-03T01:00:53.060Z,1.13
2022-10-03T01:03:24.590Z,1.25
2022-10-03T01:05:53.760Z,1.40
2022-10-03T01:08:30.767Z,1.40
2022-10-03T01:11:05.679Z,1.42
2022-10-03T01:13:44.454Z,1.15
2022-10-03T01:16:14.000Z,1.20
2022-10-03T01:19:17.486Z,1.40
2022-10-03T01:22:25.919Z,1.35
2022-10-03T01:25:23.779Z,1.35
2022-10-03T01:28:35.179Z,1.40
2022-10-03T01:31:05.500Z,1.30
2022-10-03T01:33:52.744Z,1.38
2022-10-03T01:36:32.975Z,1.20
2022-10-03T01:39:04.644Z,1.15
2022-10-03T01:42:01.433Z,1.30
2022-10-03T01:44:44.170Z,1.35
2022-10-03T01:47:26.365Z,1.27
2022-10-03T01:50:02.555Z,1.45
2022-10-03T01:52:47.030Z,1.45
2022-10-03T01:56:17.219Z,1.30
2022-10-03T01:59:14.379Z,1.40
2022-10-03T02:02:00.325Z,1.75
2022-10-03T02:04:52.222Z,1.92
2022-10-03T02:07:49.143Z,1.85
2022-10-03T02:10:46.503Z,2.03
2022-10-03T02:13:44.117Z,2.03
2022-10-03T02:16:30.069Z,2.25
2022-10-03T02:19:13.484Z,1.60
2022-10-03T02:21:50.744Z,1.85
2022-10-03T02:24:32.766Z,1.92
2022-10-03T02:27:31.026Z,1.98
2022-10-03T02:30:06.466Z,2.55
2022-10-03T02:33:07.754Z,2.20
2022-10-03T02:35:38.462Z,2.20
2022-10-03T02:38:11.873Z,2.17
2022-10-03T02:40:40.247Z,2.42
2022-10-03T02:43:33.222Z,2.20
2022-10-03T02:46:16.132Z,2.22
2022-10-03T02:48:59.235Z,2.22
2022-10-03T02:51:42.956Z,2.67
2022-10-03T02:54:42.670Z,2.75
2022-10-03T02:57:19.501Z,2.25
2022-10-03T03:00:05.707Z,2.25
2022-10-03T03:03:02.536Z,2.58
2022-10-03T03:05:56.759Z,2.50
2022-10-03T03:08:48.205Z,2.38
2022-10-03T03:11:54.678Z,2.10
2022-10-03T03:14:41.283Z,2.53
2022-10-03T03:17:39.951Z,2.38
2022-10-03T03:20:12.242Z,2.25
2022-10-03T03:23:02.158Z,2.25
2022-10-03T03:25:43.366Z,2.15
2022-10-03T03:28:24.811Z,2.33
2022-10-03T03:31:13.241Z,2.53
2022-10-03T03:37:54.578Z,1.80
2022-10-03T03:40:40.678Z,3.17
2022-10-03T03:43:30.380Z,2.20
2022-10-03T03:46:16.582Z,2.20
2022-10-03T03:48:54.259Z,2.25
2022-10-03T03:51:29.851Z,2.22
2022-10-03T03:53:58.637Z,1.92
2022-10-03T03:56:38.262Z,1.88
2022-10-03T03:59:15.713Z,2.28
2022-10-03T04:02:05.496Z,2.10
2022-10-03T04:04:56.234Z,1.95
2022-10-03T04:12:19.838Z,1.98
2022-10-03T04:15:10.312Z,2.35
2022-10-03T04:18:11.759Z,2.03
2022-10-03T04:21:20.228Z,2.50
2022-10-03T04:36:39.411Z,1.77
2022-10-03T04:43:05.115Z,2.67
2022-10-03T04:46:20.759Z,2.40
2022-10-03T04:49:41.297Z,2.30
2022-10-03T04:52:39.557Z,2.97
2022-10-03T04:55:28.549Z,2.13
2022-10-03T04:58:15.983Z,2.92
2022-10-03T05:01:15.739Z,2.38
2022-10-03T05:04:19.810Z,2.20
2022-10-03T05:07:12.167Z,2.20
2022-10-03T05:09:50.219Z,2.42
2022-10-03T05:13:34.873Z,2.10
2022-10-03T05:16:51.224Z,2.40
2022-10-03T05:19:59.811Z,2.17
2022-10-03T05:22:38.619Z,2.10
2022-10-03T05:28:45.793Z,2.00
2022-10-03T05:31:51.187Z,2.20
2022-10-03T05:34:52.951Z,2.35
2022-10-03T05:38:02.721Z,2.03
2022-10-03T05:41:03.783Z,1.77
2022-10-03T05:43:47.986Z,1.83
2022-10-03T05:47:03.739Z,1.50
2022-10-03T05:50:10.950Z,2.00
2022-10-03T05:53:21.597Z,2.10
2022-10-03T05:55:58.815Z,2.20
2022-10-03T05:59:23.759Z,1.98
2022-10-03T06:03:09.567Z,2.08
2022-10-03T06:06:19.712Z,2.38
2022-10-03T06:10:04.721Z,2.00
2022-10-03T06:13:20.594Z,2.00
2022-10-03T06:16:05.267Z,2.42
2022-10-03T06:18:55.486Z,2.00
2022-10-03T06:21:45.674Z,2.33
2022-10-03T06:24:34.987Z,1.90
2022-10-03T06:27:23.893Z,2.20
2022-10-03T06:30:06.030Z,2.05
2022-10-03T06:32:55.736Z,1.92
2022-10-03T06:36:07.836Z,1.63
2022-10-03T06:39:10.117Z,2.45
2022-10-03T06:42:44.557Z,2.15
2022-10-03T06:45:50.231Z,2.35
2022-10-03T06:48:24.569Z,1.58
2022-10-03T06:51:05.500Z,2.47
2022-10-03T06:54:22.519Z,2.28
2022-10-03T06:57:06.853Z,2.15
2022-10-03T06:59:36.383Z,2.45
2022-10-03T07:02:43.020Z,2.50
2022-10-03T07:08:49.545Z,2.83
2022-10-03T07:11:37.592Z,2.33
2022-10-03T07:14:45.387Z,2.20
2022-10-03T07:17:35.846Z,2.50
2022-10-03T07:20:15.737Z,2.20
2022-10-03T07:23:17.972Z,3.00
2022-10-03T07:26:14.845Z,2.13
2022-10-03T07:29:08.190Z,1.77
2022-10-03T07:32:16.323Z,2.40
2022-10-03T07:35:08.940Z,2.10
2022-10-03T07:38:22.485Z,2.10
2022-10-03T07:41:22.909Z,2.25
2022-10-03T07:44:33.598Z,2.10
2022-10-03T07:47:20.960Z,2.05
2022-10-03T07:50:00.949Z,2.15
2022-10-03T07:52:39.657Z,1.83
2022-10-03T07:55:22.805Z,2.17
2022-10-03T07:58:26.669Z,2.10
2022-10-03T08:01:09.986Z,6.47
2022-10-03T08:04:09.415Z,2.35
2022-10-03T08:06:46.436Z,2.30
2022-10-03T08:09:23.720Z,1.80
2022-10-03T08:12:03.552Z,2.95
2022-10-03T08:14:46.520Z,2.05
2022-10-03T08:17:52.351Z,1.77
2022-10-03T08:20:55.602Z,2.15
2022-10-03T08:23:32.466Z,1.95
2022-10-03T08:26:12.413Z,2.58
2022-10-03T08:29:13.716Z,2.95
2022-10-03T08:31:44.691Z,2.38
2022-10-03T08:34:35.004Z,2.53
2022-10-03T08:37:45.962Z,2.38
2022-10-03T08:40:56.709Z,2.55
2022-10-03T08:43:36.523Z,2.30
2022-10-03T08:46:31.495Z,2.30
2022-10-03T08:49:35.492Z,2.38
2022-10-03T08:52:08.371Z,2.33
2022-10-03T08:55:13.652Z,2.30
2022-10-03T08:58:00.186Z,2.03
2022-10-03T09:01:10.035Z,2.50
2022-10-03T09:04:02.661Z,2.95
2022-10-03T09:07:19.140Z,3.22
2022-10-03T09:19:20.122Z,2.30
2022-10-03T09:25:08.119Z,2.13
2022-10-03T09:28:02.460Z,2.28
2022-10-03T09:30:54.132Z,1.98
2022-10-03T09:33:50.827Z,2.00
2022-10-03T09:36:48.083Z,1.85
2022-10-03T09:39:46.224Z,2.00
2022-10-03T09:42:34.114Z,2.00
2022-10-03T09:45:29.198Z,2.08
2022-10-03T09:48:26.721Z,1.83
2022-10-03T09:51:04.366Z,1.70
2022-10-03T09:53:51.018Z,1.85
2022-10-03T09:56:37.766Z,1.92
2022-10-03T09:59:26.982Z,1.85
2022-10-03T10:02:16.061Z,1.52
2022-10-03T10:04:55.811Z,1.75
2022-10-03T10:07:35.783Z,1.60
2022-10-03T10:10:06.858Z,1.70
2022-10-03T10:13:12.538Z,2.20
2022-10-03T10:15:51.102Z,1.67
2022-10-03T10:18:27.655Z,2.15
2022-10-03T10:21:30.316Z,1.95
2022-10-03T10:24:25.148Z,1.88
2022-10-03T10:27:13.055Z,2.05
2022-10-03T10:30:06.558Z,2.13
2022-10-03T10:33:08.741Z,1.65
2022-10-03T10:35:59.975Z,1.58
2022-10-03T10:38:49.459Z,1.98
2022-10-03T10:41:54.289Z,2.15
2022-10-03T10:44:37.317Z,2.25
2022-10-03T10:47:23.845Z,1.98
2022-10-03T10:52:28.829Z,2.30
2022-10-03T10:55:22.321Z,1.92
2022-10-03T10:58:09.541Z,1.92
2022-10-03T11:01:04.057Z,1.65
2022-10-03T11:04:01.380Z,2.10
2022-10-03T11:09:40.411Z,1.20
2022-10-03T11:12:27.445Z,1.48
2022-10-03T11:15:28.981Z,1.70
2022-10-03T11:18:34.013Z,1.13
2022-10-03T11:21:39.503Z,1.77
2022-10-03T11:24:40.532Z,1.55
2022-10-03T11:27:30.008Z,1.60
2022-10-03T11:30:11.384Z,1.17
2022-10-03T11:32:57.654Z,1.20
2022-10-03T11:35:34.329Z,1.75
2022-10-03T11:38:32.958Z,1.52
2022-10-03T11:41:17.108Z,1.45
2022-10-03T11:44:19.621Z,1.38
2022-10-03T11:47:09.382Z,1.90
2022-10-03T11:49:56.834Z,1.50
2022-10-03T11:52:39.110Z,1.17
2022-10-03T11:55:37.047Z,1.63
2022-10-03T11:58:20.965Z,1.30
2022-10-03T12:01:13.190Z,1.25
2022-10-03T12:03:52.812Z,2.03
2022-10-03T12:06:41.770Z,1.33
2022-10-03T12:09:20.327Z,1.58
2022-10-03T12:12:01.068Z,1.20
2022-10-03T12:14:30.853Z,1.45
2022-10-03T12:17:05.939Z,1.60
2022-10-03T12:19:51.180Z,1.60
2022-10-03T12:22:19.032Z,1.80
2022-10-03T12:24:48.169Z,1.55
2022-10-03T12:27:28.026Z,1.50
2022-10-03T12:30:03.977Z,1.65
2022-10-03T12:32:42.868Z,1.63
2022-10-03T12:35:35.151Z,2.63
2022-10-03T12:38:39.281Z,2.05
2022-10-03T12:41:14.297Z,1.25
2022-10-03T12:43:56.405Z,1.57
2022-10-03T12:47:03.011Z,1.42
2022-10-03T12:50:14.211Z,1.88
2022-10-03T12:52:52.336Z,1.27
2022-10-03T12:55:30.781Z,1.20
2022-10-03T12:58:32.468Z,1.10
2022-10-03T13:01:26.283Z,1.52
2022-10-03T13:04:07.416Z,1.48
2022-10-03T13:07:05.425Z,1.20
2022-10-03T13:10:03.000Z,1.70
2022-10-03T13:12:39.589Z,1.50
2022-10-03T13:15:45.011Z,1.15
2022-10-03T13:18:18.573Z,1.10
2022-10-03T13:20:56.079Z,1.58
2022-10-03T13:23:50.821Z,1.48
2022-10-03T13:26:19.209Z,1.50
2022-10-03T13:29:18.180Z,1.00
2022-10-03T13:31:55.381Z,0.90
2022-10-03T13:34:30.986Z,1.15
2022-10-03T13:37:14.706Z,0.82
2022-10-03T13:39:46.453Z,1.60
2022-10-03T13:42:36.387Z,1.40
2022-10-03T13:45:15.580Z,1.35
2022-10-03T13:47:44.759Z,0.90
2022-10-03T13:50:20.902Z,0.80
2022-10-03T13:53:13.797Z,0.90
2022-10-03T13:55:58.305Z,1.27
2022-10-03T13:58:30.666Z,1.35
2022-10-03T14:01:28.341Z,1.20
2022-10-03T14:04:26.729Z,1.20
2022-10-03T14:07:00.692Z,1.40
2022-10-03T14:09:46.994Z,1.35
2022-10-03T14:12:54.427Z,1.35
2022-10-03T14:15:46.742Z,1.50
2022-10-03T14:18:24.967Z,1.58
2022-10-03T14:21:14.352Z,1.10
2022-10-03T14:23:43.883Z,1.60
2022-10-03T14:26:21.679Z,2.10
2022-10-03T14:29:13.294Z,1.50
2022-10-03T14:32:46.383Z,4.00
2022-10-03T14:35:28.074Z,1.80
2022-10-03T14:38:45.478Z,1.90
2022-10-03T14:43:50.823Z,1.70
2022-10-03T14:46:20.814Z,1.88
2022-10-03T14:48:50.761Z,2.30
2022-10-03T14:51:24.041Z,2.55
2022-10-03T14:53:57.677Z,5.93
2022-10-03T14:56:26.133Z,5.07
2022-10-03T14:58:55.636Z,3.47
2022-10-03T15:01:24.813Z,3.20
2022-10-03T15:04:00.359Z,1.85
2022-10-03T15:06:49.126Z,2.38
2022-10-03T15:09:20.624Z,2.30
2022-10-03T15:12:00.550Z,2.60
2022-10-03T15:14:29.104Z,2.90
2022-10-03T15:16:57.912Z,2.78
2022-10-03T15:19:48.532Z,6.60
2022-10-03T15:22:40.503Z,2.72
2022-10-03T15:25:18.669Z,2.13
2022-10-03T15:27:49.745Z,3.10
2022-10-03T15:30:36.923Z,2.50
2022-10-03T15:33:17.833Z,2.13
2022-10-03T15:35:47.204Z,2.53
2022-10-03T15:38:16.882Z,2.33
2022-10-03T15:40:51.864Z,2.40
2022-10-03T15:43:57.598Z,2.50
2022-10-03T15:46:45.016Z,3.13
2022-10-03T15:49:27.938Z,3.75
2022-10-03T15:51:55.797Z,4.82
2022-10-03T15:54:25.022Z,4.03
2022-10-03T15:56:58.415Z,4.65
2022-10-03T15:59:27.725Z,4.05
2022-10-03T16:01:56.372Z,3.80
2022-10-03T16:04:25.424Z,3.63
2022-10-03T16:06:59.908Z,3.40
2022-10-03T16:09:58.948Z,3.45
2022-10-03T16:12:46.811Z,3.08
2022-10-03T16:17:49.828Z,2.35
2022-10-03T16:20:17.751Z,2.60
2022-10-03T16:22:59.192Z,2.03
2022-10-03T16:25:29.120Z,2.15
2022-10-03T16:28:04.541Z,1.70
2022-10-03T16:30:44.638Z,1.38
2022-10-03T16:33:19.958Z,2.17
2022-10-03T16:35:52.342Z,2.40
2022-10-03T16:38:31.515Z,1.75
2022-10-03T16:41:23.044Z,1.77
2022-10-03T16:43:57.806Z,2.53
2022-10-03T16:46:31.792Z,1.92
2022-10-03T16:49:19.543Z,1.98
2022-10-03T16:51:55.782Z,1.73
2022-10-03T16:54:25.311Z,2.80
2022-10-03T16:57:03.871Z,1.63
2022-10-03T17:00:10.549Z,1.55
2022-10-03T17:02:39.057Z,1.35
2022-10-03T17:05:12.582Z,1.27
2022-10-03T17:07:50.562Z,1.60
2022-10-03T17:10:43.200Z,1.15
2022-10-03T17:13:58.062Z,1.45
2022-10-03T17:16:56.368Z,1.50
2022-10-03T17:19:39.538Z,1.40
2022-10-03T17:22:23.000Z,1.20
2022-10-03T17:25:35.044Z,1.52
2022-10-03T17:28:46.735Z,1.98
2022-10-03T17:31:46.783Z,1.55
2022-10-03T17:34:21.942Z,1.48
2022-10-03T17:37:08.449Z,1.50
2022-10-03T17:40:32.848Z,1.92
2022-10-03T17:44:09.879Z,1.30
2022-10-03T17:47:00.878Z,1.40
2022-10-03T17:50:02.834Z,1.48
2022-10-03T17:53:19.006Z,1.40
2022-10-03T17:55:55.999Z,1.50
2022-10-03T17:59:03.883Z,1.40
2022-10-03T18:02:07.034Z,1.25
2022-10-03T18:04:41.115Z,1.27
2022-10-03T18:07:26.849Z,1.40
2022-10-03T18:10:04.012Z,1.50
2022-10-03T18:12:42.514Z,1.60
2022-10-03T18:15:23.627Z,1.35
2022-10-03T18:18:21.989Z,1.38
2022-10-03T18:21:02.057Z,1.40
2022-10-03T18:24:06.317Z,1.77
2022-10-03T18:26:38.781Z,1.50
2022-10-03T18:29:18.869Z,1.70
2022-10-03T18:32:32.758Z,1.52
2022-10-03T18:35:00.801Z,1.50
2022-10-03T18:37:29.985Z,1.70
2022-10-03T18:40:24.489Z,1.60
2022-10-03T18:42:55.310Z,1.75
2022-10-03T18:45:38.494Z,1.55
2022-10-03T18:48:38.163Z,1.63
2022-10-03T18:51:25.206Z,1.55
2022-10-03T18:54:05.806Z,1.25
2022-10-03T18:56:34.503Z,1.20
2022-10-03T18:59:20.986Z,1.23
2022-10-03T19:02:38.988Z,1.50
2022-10-03T19:05:47.914Z,1.30
2022-10-03T19:08:27.532Z,1.13
2022-10-03T19:11:20.874Z,1.25
2022-10-03T19:14:18.515Z,1.13
2022-10-03T19:17:12.006Z,1.20
2022-10-03T19:19:49.394Z,1.70
2022-10-03T19:23:02.357Z,1.33
2022-10-03T19:25:33.562Z,1.30
2022-10-03T19:28:34.066Z,1.77
2022-10-03T19:31:11.960Z,1.75
2022-10-03T19:33:51.610Z,1.45
2022-10-03T19:36:25.741Z,1.67
2022-10-03T19:38:57.377Z,1.80
2022-10-03T19:41:33.995Z,1.58
2022-10-03T19:44:29.988Z,1.30
2022-10-03T19:47:31.266Z,1.40
2022-10-03T19:50:16.615Z,1.35
2022-10-03T19:52:45.530Z,1.35
2022-10-03T19:55:37.394Z,1.60
2022-10-03T19:58:23.812Z,2.33
2022-10-03T20:04:00.325Z,1.40
2022-10-03T20:06:59.446Z,1.80
2022-10-03T20:09:28.709Z,1.00
2022-10-03T20:12:01.732Z,1.20
2022-10-03T20:14:40.122Z,1.13
2022-10-03T20:17:24.013Z,0.93
2022-10-03T20:19:57.998Z,1.30
2022-10-03T20:22:28.176Z,1.00
2022-10-03T20:24:56.038Z,0.98
2022-10-03T20:27:42.646Z,1.20
2022-10-03T20:32:39.071Z,1.10
2022-10-03T20:35:07.553Z,0.95
2022-10-03T20:37:42.329Z,1.17
2022-10-03T20:40:31.031Z,1.20
2022-10-03T20:43:20.222Z,1.00
2022-10-03T20:46:00.476Z,1.08
2022-10-03T20:48:29.116Z,1.30
2022-10-03T20:50:57.622Z,1.20
2022-10-03T20:53:31.677Z,1.10
2022-10-03T20:56:05.297Z,1.10
2022-10-03T20:58:55.751Z,1.48
2022-10-03T21:01:27.702Z,1.75
2022-10-03T21:04:05.114Z,1.17
2022-10-03T21:06:49.106Z,0.77
2022-10-03T21:09:19.861Z,1.20
2022-10-03T21:11:53.738Z,0.90
2022-10-03T21:14:30.587Z,1.08
2022-10-03T21:16:58.450Z,0.82
2022-10-03T21:19:35.176Z,0.80
2022-10-03T21:24:54.254Z,1.02
2022-10-03T21:27:23.885Z,1.48
2022-10-03T21:30:05.406Z,1.00
2022-10-03T21:32:55.422Z,0.85
2022-10-03T21:35:31.769Z,0.93
2022-10-03T21:38:24.095Z,0.90
2022-10-03T21:41:15.643Z,1.05
2022-10-03T21:44:04.566Z,0.65
2022-10-03T21:47:04.321Z,0.68
2022-10-03T21:49:35.727Z,0.70
2022-10-03T21:52:27.371Z,1.00
2022-10-03T21:54:55.276Z,0.80
2022-10-03T21:57:29.408Z,1.00
2022-10-03T22:00:16.043Z,0.95
2022-10-03T22:03:25.794Z,1.17
2022-10-03T22:06:06.598Z,0.80
2022-10-03T22:08:39.250Z,0.70
2022-10-03T22:11:30.327Z,1.02
2022-10-03T22:14:14.961Z,0.80
2022-10-03T22:16:49.470Z,0.73
2022-10-03T22:19:26.466Z,0.98
2022-10-03T22:22:02.307Z,0.93
2022-10-03T22:24:52.525Z,0.73
2022-10-03T22:27:36.688Z,1.10
2022-10-03T22:30:07.144Z,0.60
2022-10-03T22:32:56.340Z,1.23
2022-10-03T22:35:24.337Z,0.70
2022-10-03T22:37:55.310Z,0.73
2022-10-03T22:40:57.913Z,0.70
2022-10-03T22:43:44.204Z,0.40
2022-10-03T22:46:18.333Z,0.50
2022-10-03T22:48:51.194Z,0.30
2022-10-03T22:51:20.526Z,0.55
2022-10-03T22:53:53.801Z,0.40
2022-10-03T22:56:35.967Z,0.45
2022-10-03T22:59:07.077Z,0.40
2022-10-03T23:01:36.002Z,0.65
2022-10-03T23:04:05.833Z,0.40
2022-10-03T23:06:43.619Z,0.60
2022-10-03T23:09:25.656Z,0.40
2022-10-03T23:11:54.075Z,0.65
2022-10-03T23:14:52.583Z,0.50
2022-10-03T23:18:01.755Z,0.63
2022-10-03T23:20:48.605Z,0.55
2022-10-03T23:23:43.655Z,0.50
2022-10-03T23:27:03.670Z,0.50
2022-10-03T23:29:31.851Z,0.50
2022-10-03T23:32:00.187Z,0.60
2022-10-03T23:34:38.058Z,0.55
2022-10-03T23:37:12.187Z,0.80
2022-10-03T23:39:41.017Z,0.63
2022-10-03T23:42:47.929Z,0.50
2022-10-03T23:45:17.469Z,1.08
2022-10-03T23:47:53.408Z,1.00
2022-10-03T23:50:33.859Z,0.82
2022-10-03T23:53:01.774Z,0.80
2022-10-03T23:55:32.033Z,1.00
2022-10-03T23:58:00.143Z,0.90
